Map

Track Data

SID SEASON NUMBER BASIN SUBBASIN NAME ISO_TIME NATURE LAT LON WMO_WIND WMO_PRES WMO_AGENCY TRACK_TYPE DIST2LAND LANDFALL IFLAG USA_AGENCY USA_ATCF_ID USA_LAT USA_LON USA_RECORD USA_STATUS USA_WIND USA_PRES USA_SSHS USA_R34_NE USA_R34_SE USA_R34_SW USA_R34_NW USA_R50_NE USA_R50_SE USA_R50_SW USA_R50_NW USA_R64_NE USA_R64_SE USA_R64_SW USA_R64_NW USA_POCI USA_ROCI USA_RMW USA_EYE TOKYO_LAT TOKYO_LON TOKYO_GRADE TOKYO_WIND TOKYO_PRES TOKYO_R50_DIR TOKYO_R50_LONG TOKYO_R50_SHORT TOKYO_R30_DIR TOKYO_R30_LONG TOKYO_R30_SHORT TOKYO_LAND CMA_LAT CMA_LON CMA_CAT CMA_WIND CMA_PRES HKO_LAT HKO_LON HKO_CAT HKO_WIND HKO_PRES NEWDELHI_LAT NEWDELHI_LON NEWDELHI_GRADE NEWDELHI_WIND NEWDELHI_PRES NEWDELHI_CI NEWDELHI_DP NEWDELHI_POCI REUNION_LAT REUNION_LON REUNION_TYPE REUNION_WIND REUNION_PRES REUNION_TNUM REUNION_CI REUNION_RMW REUNION_R34_NE REUNION_R34_SE REUNION_R34_SW REUNION_R34_NW REUNION_R50_NE REUNION_R50_SE REUNION_R50_SW REUNION_R50_NW REUNION_R64_NE REUNION_R64_SE REUNION_R64_SW REUNION_R64_NW BOM_LAT BOM_LON BOM_TYPE BOM_WIND BOM_PRES BOM_TNUM BOM_CI BOM_RMW BOM_R34_NE BOM_R34_SE BOM_R34_SW BOM_R34_NW BOM_R50_NE BOM_R50_SE BOM_R50_SW BOM_R50_NW BOM_R64_NE BOM_R64_SE BOM_R64_SW BOM_R64_NW BOM_ROCI BOM_POCI BOM_EYE BOM_POS_METHOD BOM_PRES_METHOD NADI_LAT NADI_LON NADI_CAT NADI_WIND NADI_PRES WELLINGTON_LAT WELLINGTON_LON WELLINGTON_WIND WELLINGTON_PRES DS824_LAT DS824_LON DS824_STAGE DS824_WIND DS824_PRES TD9636_LAT TD9636_LON TD9636_STAGE TD9636_WIND TD9636_PRES TD9635_LAT TD9635_LON TD9635_WIND TD9635_PRES TD9635_ROCI NEUMANN_LAT NEUMANN_LON NEUMANN_CLASS NEUMANN_WIND NEUMANN_PRES MLC_LAT MLC_LON MLC_CLASS MLC_WIND MLC_PRES USA_GUST BOM_GUST BOM_GUST_PER REUNION_GUST REUNION_GUST_PER USA_SEAHGT USA_SEARAD_NE USA_SEARAD_SE USA_SEARAD_SW USA_SEARAD_NW STORM_SPEED STORM_DIR
2019360S13176 2020 4 SP MM SARAI 2019-12-26 06:00:00 NR -13.2000 176.200 PROVISIONAL 463 429 O_____________ tcvitals SP042019 -13.2000 176.200 35 999 0 60 110 95 40 1004 240 70 12 199
2019360S13176 2020 4 SP MM SARAI 2019-12-26 09:00:00 NR -13.7801 175.995 PROVISIONAL 421 387 P_____________ SP042019 -13.7801 175.995 40 997 0 93 140 97 45 1005 240 60 13 198
2019360S13176 2020 4 SP MM SARAI 2019-12-26 12:00:00 NR -14.4000 175.800 PROVISIONAL 387 339 O_____________ tcvitals SP042019 -14.4000 175.800 45 996 0 126 170 100 50 1006 240 50 14 195
2019360S13176 2020 4 SP MM SARAI 2019-12-26 15:00:00 NR -15.0725 175.628 PROVISIONAL 336 293 P_____________ SP042019 -15.0725 175.628 45 995 0 160 197 107 88 1006 240 50 13 193
2019360S13176 2020 4 SP MM SARAI 2019-12-26 18:00:00 NR -15.7000 175.500 PROVISIONAL 293 271 O_____________ tcvitals SP042019 -15.7000 175.500 45 994 0 195 225 115 126 1006 240 50 11 191
2019360S13176 2020 4 SP MM SARAI 2019-12-26 21:00:00 NR -16.1425 175.420 PROVISIONAL 271 240 P_____________ SP042019 -16.1425 175.420 48 992 0 185 192 115 100 1005 245 37 9 186
2019360S13176 2020 4 SP MM SARAI 2019-12-27 00:00:00 NR -16.6000 175.400 PROVISIONAL 240 206 O_____________ tcvitals SP042019 -16.6000 175.400 51 990 0 175 160 115 75 1004 250 25 12 0
2019360S13176 2020 4 SP MM SARAI 2019-12-27 03:00:00 NR -17.3149 175.398 PROVISIONAL 206 179 P_____________ SP042019 -17.3149 175.398 52 988 0 182 165 112 75 1003 227 25 14 176
2019360S13176 2020 4 SP MM SARAI 2019-12-27 06:00:00 NR -18.0000 175.500 PROVISIONAL 179 162 O_____________ tcvitals SP042019 -18.0000 175.500 54 986 0 190 170 110 75 1002 205 25 12 163
2019360S13176 2020 4 SP MM SARAI 2019-12-27 09:00:00 NR -18.4175 175.755 PROVISIONAL 154 140 P_____________ SP042019 -18.4175 175.755 54 987 0 150 157 112 75 1003 212 32 9 141
2019360S13176 2020 4 SP MM SARAI 2019-12-27 12:00:00 NR -18.7000 176.100 PROVISIONAL 140 130 O_____________ tcvitals SP042019 -18.7000 176.100 54 988 0 110 145 115 75 1004 220 40 9 130
2019360S13176 2020 4 SP MM SARAI 2019-12-27 15:00:00 NR -18.9725 176.443 PROVISIONAL 138 128 P_____________ SP042019 -18.9725 176.443 57 985 0 140 165 122 80 1003 215 40 8 127
2019360S13176 2020 4 SP MM SARAI 2019-12-27 18:00:00 NR -19.2000 176.800 PROVISIONAL 133 130 O_____________ tcvitals SP042019 -19.2000 176.800 60 983 0 170 185 130 85 1003 210 40 8 121
2019360S13176 2020 4 SP MM SARAI 2019-12-27 21:00:00 NR -19.3926 177.188 PROVISIONAL 140 137 P_____________ SP042019 -19.3926 177.188 62 981 0 170 185 135 97 1003 207 40 8 121
2019360S13176 2020 4 SP MM SARAI 2019-12-28 00:00:00 NR -19.6000 177.500 PROVISIONAL 151 151 O_____________ tcvitals SP042019 -19.6000 177.500 64 979 1 170 185 140 110 1003 205 40 7 145
2019360S13176 2020 4 SP MM SARAI 2019-12-28 03:00:00 NR -19.9598 177.608 PROVISIONAL 192 192 P_____________ SP042019 -19.9598 177.608 64 979 1 170 185 140 110 1003 202 40 6 162
2019360S13176 2020 4 SP MM SARAI 2019-12-28 06:00:00 NR -20.2000 177.700 PROVISIONAL 213 190 O_____________ tcvitals SP042019 -20.2000 177.700 64 979 1 170 185 140 110 1003 200 40 4 101
2019360S13176 2020 4 SP MM SARAI 2019-12-28 09:00:00 NR -20.0301 177.986 PROVISIONAL 190 167 P_____________ SP042019 -20.0301 177.986 67 977 1 162 177 147 115 1003 200 40 7 55
2019360S13176 2020 4 SP MM SARAI 2019-12-28 12:00:00 NR -19.8000 178.300 PROVISIONAL 168 168 O_____________ tcvitals SP042019 -19.8000 178.300 70 976 1 155 170 155 120 1004 200 40 5 73
2019360S13176 2020 4 SP MM SARAI 2019-12-28 15:00:00 NR -19.8775 178.530 PROVISIONAL 181 181 P_____________ SP042019 -19.8775 178.530 70 975 1 152 175 152 123 1003 202 37 4 118
2019360S13176 2020 4 SP MM SARAI 2019-12-28 18:00:00 NR -20.0000 178.700 PROVISIONAL 197 186 O_____________ tcvitals SP042019 -20.0000 178.700 70 975 1 150 180 150 126 1003 205 35 2 101
2019360S13176 2020 4 SP MM SARAI 2019-12-28 21:00:00 NR -19.9198 178.763 PROVISIONAL 189 189 P_____________ SP042019 -19.9198 178.763 70 975 1 142 182 152 113 1003 205 35 2 62
2019360S13176 2020 4 SP MM SARAI 2019-12-29 00:00:00 NR -19.9000 178.900 PROVISIONAL 193 193 O_____________ tcvitals SP042019 -19.9000 178.900 70 975 1 135 185 155 100 1003 205 35 6 118
2019360S13176 2020 4 SP MM SARAI 2019-12-29 03:00:00 NR -20.2003 179.319 PROVISIONAL 241 241 P_____________ SP042019 -20.2003 179.319 67 976 1 125 180 162 107 1003 205 35 10 125
2019360S13176 2020 4 SP MM SARAI 2019-12-29 06:00:00 NR -20.5000 179.800 PROVISIONAL 292 292 O_____________ tcvitals SP042019 -20.5000 179.800 64 978 1 115 175 170 115 1003 205 35 8 112
2019360S13176 2020 4 SP MM SARAI 2019-12-29 09:00:00 NR -20.4947 180.100 PROVISIONAL 306 301 P_____________ SP042019 -20.4947 -179.900 64 979 1 112 180 165 97 1003 202 35 6 80
2019360S13176 2020 4 SP MM SARAI 2019-12-29 12:00:00 NR -20.4000 180.400 PROVISIONAL 313 313 O_____________ tcvitals SP042019 -20.4000 -179.600 64 980 1 110 185 160 80 1004 200 35 7 80
2019360S13176 2020 4 SP MM SARAI 2019-12-29 15:00:00 NR -20.3704 180.888 PROVISIONAL 345 345 P_____________ SP042019 -20.3704 -179.112 62 981 0 112 187 162 85 1003 200 35 8 90
2019360S13176 2020 4 SP MM SARAI 2019-12-29 18:00:00 NR -20.4000 181.300 PROVISIONAL 375 375 O_____________ tcvitals SP042019 -20.4000 -178.700 60 982 0 115 190 165 90 1003 200 35 4 110
2019360S13176 2020 4 SP MM SARAI 2019-12-29 21:00:00 NR -20.5195 181.328 PROVISIONAL 382 382 P_____________ SP042019 -20.5195 -178.672 57 983 0 117 192 162 95 1003 200 37 3 163
2019360S13176 2020 4 SP MM SARAI 2019-12-30 00:00:00 NR -20.7000 181.400 PROVISIONAL 405 405 O_____________ tcvitals SP042019 -20.7000 -178.600 54 984 0 120 195 160 100 1003 200 40 7 124
2019360S13176 2020 4 SP MM SARAI 2019-12-30 03:00:00 NR -20.9157 181.954 PROVISIONAL 466 466 P_____________ SP042019 -20.9157 -178.046 52 985 0 127 195 165 113 1003 202 40 12 110
2019360S13176 2020 4 SP MM SARAI 2019-12-30 06:00:00 NR -21.1000 182.600 PROVISIONAL 528 528 O_____________ tcvitals SP042019 -21.1000 -177.400 51 986 0 135 195 170 126 1003 205 40 10 106
2019360S13176 2020 4 SP MM SARAI 2019-12-30 09:00:00 NR -21.1871 182.980 PROVISIONAL 568 568 P_____________ SP042019 -21.1871 -177.020 48 988 0 122 187 160 115 1003 202 40 7 99
2019360S13176 2020 4 SP MM SARAI 2019-12-30 12:00:00 NR -21.2000 183.300 PROVISIONAL 593 593 O_____________ tcvitals SP042019 -21.2000 -176.700 45 991 0 110 180 150 105 1004 200 40 7 90
2019360S13176 2020 4 SP MM SARAI 2019-12-30 15:00:00 NR -21.1876 183.707 PROVISIONAL 627 627 P_____________ SP042019 -21.1876 -176.293 45 991 0 110 180 150 105 1004 200 40 8 82
2019360S13176 2020 4 SP MM SARAI 2019-12-30 18:00:00 NR -21.1000 184.100 PROVISIONAL 652 652 O_____________ tcvitals SP042019 -21.1000 -175.900 45 991 0 110 180 150 105 1004 200 40 7 67
2019360S13176 2020 4 SP MM SARAI 2019-12-30 21:00:00 NR -20.9162 184.392 PROVISIONAL 659 659 P_____________ SP042019 -20.9222 -175.615 42 992 0 110 180 150 105 1004 200 40 7 54
2019360S13176 2020 4 SP MM SARAI 2019-12-31 00:00:00 NR -20.7000 184.700 PROVISIONAL 667 667 O_____________ tcvitals SP042019 -20.7000 -175.300 39 993 0 110 180 150 105 1004 200 40 8 59
2019360S13176 2020 4 SP MM SARAI 2019-12-31 03:00:00 NR -20.5125 185.105 PROVISIONAL 686 686 P_____________ SP042019 -20.4712 -174.843 34 996 0 1003 187 35 9 69
2019360S13176 2020 4 SP MM SARAI 2019-12-31 06:00:00 NR -20.3683 185.616 PROVISIONAL 723 723 O_____________ tcvitals SP042019 -20.3000 -174.300 29 999 -1 1003 175 30 10 78
2019360S13176 2020 4 SP MM SARAI 2019-12-31 09:00:00 NR -20.3019 186.183 PROVISIONAL 738 730 P_____________ SP042019 -20.2448 -173.771 29 999 -1 12 87
2019360S13176 2020 4 SP MM SARAI 2019-12-31 12:00:00 NR -20.3124 186.850 PROVISIONAL 730 727 I_____________ tcvitals SP042019 -20.2833 -173.119 29 1000 -1 15 93
2019360S13176 2020 4 SP MM SARAI 2019-12-31 15:00:00 NR -20.3794 187.731 PROVISIONAL 738 738 P_____________ SP042019 -20.3794 -172.269 29 1000 -1 17 96
2019360S13176 2020 4 SP MM SARAI 2019-12-31 18:00:00 NR -20.5000 188.700 PROVISIONAL 755 O_____________ tcvitals SP042019 -20.5000 -171.300 29 1001 -1 1004 255 70 18 98

Digital Typhoon Data and Search

About IBTrACS Database

This database is a web-friendly format of International Best Track Archive for Climate Stewardship (IBTrACS), a global best track data archive curated by NOAA dating back to 1842.

Updated: 2021-12-03